Detall de PIREP

Printer-friendly versionPDF version

[2013/03/05 16:59:00]
Flight IATA:CT3303
Pilot Number:012
Company ICAO:CAT
Aircraft Type:A320/E
PAX:150
Departing Airport: DTTA
Destination Airport: LEZG
Alternate Airport:LEMD
Online: VATSIM
Route:TOBIB UA725 TANIT UM733 CAR UM732 GINOX UM601 BCN UN725 LOBAR
Flight Level:F360
No Slew and time accel
No pause
Crash detect
Detect pilot in Cockpit between each 30 and 45 minutes
16:59 Zero fuel Weight: 125806 Lbs, Fuel Weight: 20317 Lbs
16:59 VATSIM:DTTA 051630Z 12021G31KT 8000 SCT023 BKN090 16/12 Q1010 NOSIG
16:59 VATSIM:LEZG 051630Z 11012KT 9999 FEW020 SCT040 14/10 Q0997
16:59 VOICE CATALONIAN
17:02 Parking Brakes off
17:08 Take-off
17:08 Take off Weight: 145074 Lbs
17:08 Wind: 120º @ 025 Knots Heading: 112º
17:08 POS N36º 50´ 51´´ E010º 14´ 20´´
17:08 Gear Up: 187 Knots
17:08 Flaps:3 at 187 Knots
17:08 Flaps:1 at 204 Knots
17:08 Flaps:0 at 228 Knots
17:23 Wind:225º@054 Knots Heading: 340º Ground Speed: 483 Knots Altitude 32509 ft
17:25 TOC
17:25 Fuel Weight: 15269 Lb
17:38 Wind:225º@079 Knots Heading: 317º Ground Speed: 455 Knots Altitude 35833 ft
17:53 Wind:229º@076 Knots Heading: 266º Ground Speed: 387 Knots Altitude 36807 ft
18:08 Wind:223º@072 Knots Heading: 270º Ground Speed: 402 Knots Altitude 36555 ft
18:23 Wind:214º@054 Knots Heading: 270º Ground Speed: 420 Knots Altitude 36587 ft
18:32 TOD
18:32 Fuel Weight: 9512 Lb
18:38 Wind:204º@020 Knots Heading: 285º Ground Speed: 366 Knots Altitude 21246 ft
18:53 Wind:126º@009 Knots Heading: 173º Ground Speed: 245 Knots Altitude 3599 ft
18:54 Flaps:1 at 210 Knots
18:54 Flaps:3 at 192 Knots
18:54 Flaps:4 at 168 Knots
18:55 Flaps:5 at 143 Knots
18:55 Gear Down: 139 Knots
18:57 TouchDown:Rate -240 ft/min Speed: 133 Knots
18:58 VATSIM:LEZG 051830Z 11012KT 9000 FEW020 SCT040 13/10 Q0997
18:58 Land
18:58 Wind:108º@009 Knots
18:58 Heading: 117º
18:58 Flight Duration: 01:50
18:58 Landing Weight: 133444 Lbs
18:58 POS N41º 40´ 24´´ W001º 04´ 01´´
19:01 Parking brakes on
19:01 Block to Block Duration: 01:59
19:01 Final Fuel: 7306 Lbls
19:01 Spent Fuel: 13011 Lbls
19:01 Flight Length: 721 NM
19:01 TOD Land Length: 128 NM

Exportar CSV

Powered by Drupal - Modified by Danger4k